sensor_id;sensor_type;location;lat;lon;timestamp;P1;durP1;ratioP1;P2;durP2;ratioP2
50968;SDS011;36982;51.474;7.228;2024-01-25T00:01:46;29.10;;;5.67;;
50968;SDS011;36982;51.474;7.228;2024-01-25T00:04:12;17.27;;;4.10;;
50968;SDS011;36982;51.474;7.228;2024-01-25T00:06:38;12.60;;;3.63;;
50968;SDS011;36982;51.474;7.228;2024-01-25T00:09:08;26.70;;;4.90;;
50968;SDS011;36982;51.474;7.228;2024-01-25T00:11:34;21.60;;;4.60;;
50968;SDS011;36982;51.474;7.228;2024-01-25T00:14:00;15.97;;;3.83;;
50968;SDS011;36982;51.474;7.228;2024-01-25T00:16:26;21.87;;;5.10;;
50968;SDS011;36982;51.474;7.228;2024-01-25T00:18:52;17.67;;;4.30;;
50968;SDS011;36982;51.474;7.228;2024-01-25T00:21:18;19.10;;;3.90;;
50968;SDS011;36982;51.474;7.228;2024-01-25T00:23:43;24.57;;;4.10;;
50968;SDS011;36982;51.474;7.228;2024-01-25T00:26:14;18.13;;;3.60;;
50968;SDS011;36982;51.474;7.228;2024-01-25T00:28:40;18.50;;;4.50;;
50968;SDS011;36982;51.474;7.228;2024-01-25T00:31:05;20.20;;;3.83;;
50968;SDS011;36982;51.474;7.228;2024-01-25T00:33:31;17.73;;;3.90;;
50968;SDS011;36982;51.474;7.228;2024-01-25T00:35:56;26.57;;;4.50;;
50968;SDS011;36982;51.474;7.228;2024-01-25T00:38:22;20.50;;;4.67;;
50968;SDS011;36982;51.474;7.228;2024-01-25T00:40:48;16.70;;;3.83;;
50968;SDS011;36982;51.474;7.228;2024-01-25T00:43:14;17.10;;;3.90;;
50968;SDS011;36982;51.474;7.228;2024-01-25T00:45:39;17.93;;;4.10;;
50968;SDS011;36982;51.474;7.228;2024-01-25T00:48:05;20.40;;;4.53;;
50968;SDS011;36982;51.474;7.228;2024-01-25T00:50:32;17.47;;;4.40;;
50968;SDS011;36982;51.474;7.228;2024-01-25T00:52:57;23.43;;;4.90;;
50968;SDS011;36982;51.474;7.228;2024-01-25T00:55:23;16.17;;;3.80;;
50968;SDS011;36982;51.474;7.228;2024-01-25T00:57:49;19.13;;;3.83;;
50968;SDS011;36982;51.474;7.228;2024-01-25T01:00:16;21.13;;;4.20;;
50968;SDS011;36982;51.474;7.228;2024-01-25T01:02:43;16.50;;;4.20;;
50968;SDS011;36982;51.474;7.228;2024-01-25T01:05:10;20.17;;;4.90;;
50968;SDS011;36982;51.474;7.228;2024-01-25T01:07:36;24.80;;;4.13;;
50968;SDS011;36982;51.474;7.228;2024-01-25T01:10:02;20.50;;;4.53;;
50968;SDS011;36982;51.474;7.228;2024-01-25T01:12:28;20.37;;;3.73;;
50968;SDS011;36982;51.474;7.228;2024-01-25T01:14:55;21.23;;;4.50;;
50968;SDS011;36982;51.474;7.228;2024-01-25T01:17:21;17.63;;;3.60;;
50968;SDS011;36982;51.474;7.228;2024-01-25T01:19:46;26.83;;;5.03;;
50968;SDS011;36982;51.474;7.228;2024-01-25T01:22:12;18.77;;;3.90;;
50968;SDS011;36982;51.474;7.228;2024-01-25T01:24:37;24.47;;;4.40;;
50968;SDS011;36982;51.474;7.228;2024-01-25T01:27:03;24.30;;;4.27;;
50968;SDS011;36982;51.474;7.228;2024-01-25T01:29:29;18.50;;;4.00;;
50968;SDS011;36982;51.474;7.228;2024-01-25T01:31:54;16.20;;;3.57;;
50968;SDS011;36982;51.474;7.228;2024-01-25T01:34:20;18.20;;;3.60;;
50968;SDS011;36982;51.474;7.228;2024-01-25T01:36:45;20.00;;;4.37;;
50968;SDS011;36982;51.474;7.228;2024-01-25T01:39:11;25.37;;;4.23;;
50968;SDS011;36982;51.474;7.228;2024-01-25T01:41:36;21.43;;;4.23;;
50968;SDS011;36982;51.474;7.228;2024-01-25T01:44:02;16.10;;;3.60;;
50968;SDS011;36982;51.474;7.228;2024-01-25T01:49:01;22.10;;;4.30;;
50968;SDS011;36982;51.474;7.228;2024-01-25T01:51:29;21.03;;;3.63;;
50968;SDS011;36982;51.474;7.228;2024-01-25T01:54:05;13.43;;;4.10;;
50968;SDS011;36982;51.474;7.228;2024-01-25T01:56:34;27.47;;;4.83;;
50968;SDS011;36982;51.474;7.228;2024-01-25T01:59:01;15.97;;;4.13;;
50968;SDS011;36982;51.474;7.228;2024-01-25T02:01:30;18.10;;;3.90;;
50968;SDS011;36982;51.474;7.228;2024-01-25T02:03:56;21.20;;;4.10;;
50968;SDS011;36982;51.474;7.228;2024-01-25T02:06:25;25.60;;;4.40;;
50968;SDS011;36982;51.474;7.228;2024-01-25T02:08:51;21.03;;;4.20;;
50968;SDS011;36982;51.474;7.228;2024-01-25T02:11:23;16.20;;;3.83;;
50968;SDS011;36982;51.474;7.228;2024-01-25T02:13:52;18.97;;;3.80;;
50968;SDS011;36982;51.474;7.228;2024-01-25T02:16:18;19.10;;;4.27;;
50968;SDS011;36982;51.474;7.228;2024-01-25T02:18:44;18.80;;;4.17;;
50968;SDS011;36982;51.474;7.228;2024-01-25T02:21:11;20.10;;;3.77;;
50968;SDS011;36982;51.474;7.228;2024-01-25T02:23:37;20.13;;;4.63;;
50968;SDS011;36982;51.474;7.228;2024-01-25T02:26:02;26.27;;;4.07;;
50968;SDS011;36982;51.474;7.228;2024-01-25T02:28:33;18.63;;;3.97;;
50968;SDS011;36982;51.474;7.228;2024-01-25T02:31:01;21.60;;;3.73;;
50968;SDS011;36982;51.474;7.228;2024-01-25T02:33:27;19.67;;;4.80;;
50968;SDS011;36982;51.474;7.228;2024-01-25T02:35:52;15.43;;;3.50;;
50968;SDS011;36982;51.474;7.228;2024-01-25T02:38:18;16.23;;;4.40;;
50968;SDS011;36982;51.474;7.228;2024-01-25T02:40:43;21.93;;;3.93;;
50968;SDS011;36982;51.474;7.228;2024-01-25T02:43:09;20.37;;;3.87;;
50968;SDS011;36982;51.474;7.228;2024-01-25T02:45:34;21.20;;;4.80;;
50968;SDS011;36982;51.474;7.228;2024-01-25T02:48:00;12.23;;;2.97;;
50968;SDS011;36982;51.474;7.228;2024-01-25T02:50:27;12.20;;;2.93;;
50968;SDS011;36982;51.474;7.228;2024-01-25T02:52:52;19.20;;;3.50;;
50968;SDS011;36982;51.474;7.228;2024-01-25T02:55:18;18.20;;;4.00;;
50968;SDS011;36982;51.474;7.228;2024-01-25T03:00:35;19.37;;;4.57;;
50968;SDS011;36982;51.474;7.228;2024-01-25T03:03:00;18.23;;;3.53;;
50968;SDS011;36982;51.474;7.228;2024-01-25T03:05:26;20.40;;;3.87;;
50968;SDS011;36982;51.474;7.228;2024-01-25T03:07:51;18.73;;;5.00;;
50968;SDS011;36982;51.474;7.228;2024-01-25T03:10:17;15.77;;;3.50;;
50968;SDS011;36982;51.474;7.228;2024-01-25T03:12:46;24.53;;;5.40;;
50968;SDS011;36982;51.474;7.228;2024-01-25T03:15:11;22.03;;;4.77;;
50968;SDS011;36982;51.474;7.228;2024-01-25T03:17:37;16.27;;;4.07;;
50968;SDS011;36982;51.474;7.228;2024-01-25T03:20:03;17.30;;;3.80;;
50968;SDS011;36982;51.474;7.228;2024-01-25T03:22:29;15.13;;;3.40;;
50968;SDS011;36982;51.474;7.228;2024-01-25T03:24:54;18.93;;;3.40;;
50968;SDS011;36982;51.474;7.228;2024-01-25T03:27:20;16.60;;;3.40;;
50968;SDS011;36982;51.474;7.228;2024-01-25T03:29:45;16.17;;;4.13;;
50968;SDS011;36982;51.474;7.228;2024-01-25T03:32:11;19.70;;;4.20;;
50968;SDS011;36982;51.474;7.228;2024-01-25T03:34:37;17.50;;;4.23;;
50968;SDS011;36982;51.474;7.228;2024-01-25T03:37:03;21.03;;;4.03;;
50968;SDS011;36982;51.474;7.228;2024-01-25T03:39:32;12.73;;;3.37;;
50968;SDS011;36982;51.474;7.228;2024-01-25T03:41:57;17.47;;;4.60;;
50968;SDS011;36982;51.474;7.228;2024-01-25T03:44:23;21.77;;;4.10;;
50968;SDS011;36982;51.474;7.228;2024-01-25T03:46:49;14.57;;;3.07;;
50968;SDS011;36982;51.474;7.228;2024-01-25T03:49:14;25.53;;;4.07;;
50968;SDS011;36982;51.474;7.228;2024-01-25T03:51:40;17.47;;;3.73;;
50968;SDS011;36982;51.474;7.228;2024-01-25T03:54:05;17.30;;;5.40;;
50968;SDS011;36982;51.474;7.228;2024-01-25T03:56:31;17.87;;;4.03;;
50968;SDS011;36982;51.474;7.228;2024-01-25T03:58:57;17.53;;;3.63;;
50968;SDS011;36982;51.474;7.228;2024-01-25T04:01:22;18.37;;;3.33;;
50968;SDS011;36982;51.474;7.228;2024-01-25T04:03:48;19.87;;;3.97;;
50968;SDS011;36982;51.474;7.228;2024-01-25T04:06:14;17.60;;;3.33;;
50968;SDS011;36982;51.474;7.228;2024-01-25T04:08:39;21.40;;;3.73;;
50968;SDS011;36982;51.474;7.228;2024-01-25T04:11:05;13.20;;;3.67;;
50968;SDS011;36982;51.474;7.228;2024-01-25T04:13:30;14.47;;;3.53;;
50968;SDS011;36982;51.474;7.228;2024-01-25T04:16:04;23.50;;;3.40;;
50968;SDS011;36982;51.474;7.228;2024-01-25T04:18:30;14.37;;;3.83;;
50968;SDS011;36982;51.474;7.228;2024-01-25T04:20:56;16.77;;;4.27;;
50968;SDS011;36982;51.474;7.228;2024-01-25T04:23:29;17.50;;;3.50;;
50968;SDS011;36982;51.474;7.228;2024-01-25T04:25:55;17.93;;;3.60;;
50968;SDS011;36982;51.474;7.228;2024-01-25T04:28:20;22.70;;;4.10;;
50968;SDS011;36982;51.474;7.228;2024-01-25T04:30:46;21.90;;;4.33;;
50968;SDS011;36982;51.474;7.228;2024-01-25T04:33:11;17.27;;;3.83;;
50968;SDS011;36982;51.474;7.228;2024-01-25T04:35:37;21.17;;;3.80;;
50968;SDS011;36982;51.474;7.228;2024-01-25T04:38:03;22.10;;;4.80;;
50968;SDS011;36982;51.474;7.228;2024-01-25T04:40:28;15.67;;;3.33;;
50968;SDS011;36982;51.474;7.228;2024-01-25T04:42:54;17.77;;;3.40;;
50968;SDS011;36982;51.474;7.228;2024-01-25T04:45:19;21.83;;;3.43;;
50968;SDS011;36982;51.474;7.228;2024-01-25T04:47:45;18.70;;;3.23;;
50968;SDS011;36982;51.474;7.228;2024-01-25T04:50:10;15.50;;;3.40;;
50968;SDS011;36982;51.474;7.228;2024-01-25T04:52:36;18.10;;;3.73;;
50968;SDS011;36982;51.474;7.228;2024-01-25T04:55:01;13.13;;;3.30;;
50968;SDS011;36982;51.474;7.228;2024-01-25T04:57:27;21.90;;;5.17;;
50968;SDS011;36982;51.474;7.228;2024-01-25T04:59:53;18.47;;;4.37;;
50968;SDS011;36982;51.474;7.228;2024-01-25T05:02:19;17.33;;;3.50;;
50968;SDS011;36982;51.474;7.228;2024-01-25T05:04:45;18.33;;;4.50;;
50968;SDS011;36982;51.474;7.228;2024-01-25T05:07:24;13.70;;;3.80;;
50968;SDS011;36982;51.474;7.228;2024-01-25T05:09:50;19.17;;;3.93;;
50968;SDS011;36982;51.474;7.228;2024-01-25T05:12:15;14.63;;;3.43;;
50968;SDS011;36982;51.474;7.228;2024-01-25T05:14:41;19.83;;;3.47;;
50968;SDS011;36982;51.474;7.228;2024-01-25T05:17:07;19.03;;;3.63;;
50968;SDS011;36982;51.474;7.228;2024-01-25T05:19:32;13.57;;;4.57;;
50968;SDS011;36982;51.474;7.228;2024-01-25T05:21:58;18.87;;;3.90;;
50968;SDS011;36982;51.474;7.228;2024-01-25T05:24:23;15.87;;;3.33;;
50968;SDS011;36982;51.474;7.228;2024-01-25T05:26:49;20.40;;;4.33;;
50968;SDS011;36982;51.474;7.228;2024-01-25T05:29:15;14.73;;;3.70;;
50968;SDS011;36982;51.474;7.228;2024-01-25T05:31:41;16.37;;;3.90;;
50968;SDS011;36982;51.474;7.228;2024-01-25T05:34:07;16.30;;;3.60;;
50968;SDS011;36982;51.474;7.228;2024-01-25T05:36:32;18.40;;;3.70;;
50968;SDS011;36982;51.474;7.228;2024-01-25T05:38:58;18.93;;;3.40;;
50968;SDS011;36982;51.474;7.228;2024-01-25T05:41:23;21.77;;;4.30;;
50968;SDS011;36982;51.474;7.228;2024-01-25T05:43:49;20.17;;;4.17;;
50968;SDS011;36982;51.474;7.228;2024-01-25T05:46:15;19.33;;;4.17;;
50968;SDS011;36982;51.474;7.228;2024-01-25T05:48:40;16.70;;;3.33;;
50968;SDS011;36982;51.474;7.228;2024-01-25T05:51:06;21.20;;;3.77;;
50968;SDS011;36982;51.474;7.228;2024-01-25T05:53:31;19.27;;;4.17;;
50968;SDS011;36982;51.474;7.228;2024-01-25T05:55:57;20.00;;;3.57;;
50968;SDS011;36982;51.474;7.228;2024-01-25T05:58:23;15.13;;;3.20;;
50968;SDS011;36982;51.474;7.228;2024-01-25T06:00:56;15.67;;;3.30;;
50968;SDS011;36982;51.474;7.228;2024-01-25T06:03:21;16.20;;;3.73;;
50968;SDS011;36982;51.474;7.228;2024-01-25T06:05:47;21.57;;;4.10;;
50968;SDS011;36982;51.474;7.228;2024-01-25T06:08:15;18.57;;;4.40;;
50968;SDS011;36982;51.474;7.228;2024-01-25T06:10:41;13.33;;;2.47;;
50968;SDS011;36982;51.474;7.228;2024-01-25T06:13:08;13.60;;;3.50;;
50968;SDS011;36982;51.474;7.228;2024-01-25T06:15:33;19.57;;;3.97;;
50968;SDS011;36982;51.474;7.228;2024-01-25T06:17:59;21.63;;;3.73;;
50968;SDS011;36982;51.474;7.228;2024-01-25T06:20:24;13.60;;;3.87;;
50968;SDS011;36982;51.474;7.228;2024-01-25T06:22:50;23.40;;;4.20;;
50968;SDS011;36982;51.474;7.228;2024-01-25T06:25:21;16.60;;;3.90;;
50968;SDS011;36982;51.474;7.228;2024-01-25T06:27:47;18.63;;;4.37;;
50968;SDS011;36982;51.474;7.228;2024-01-25T06:30:18;20.47;;;4.00;;
50968;SDS011;36982;51.474;7.228;2024-01-25T06:32:44;14.80;;;3.30;;
50968;SDS011;36982;51.474;7.228;2024-01-25T06:35:11;15.63;;;3.83;;
50968;SDS011;36982;51.474;7.228;2024-01-25T06:37:36;19.17;;;3.90;;
50968;SDS011;36982;51.474;7.228;2024-01-25T06:40:04;20.00;;;4.37;;
50968;SDS011;36982;51.474;7.228;2024-01-25T06:42:30;17.93;;;3.63;;
50968;SDS011;36982;51.474;7.228;2024-01-25T06:44:56;21.93;;;5.00;;
50968;SDS011;36982;51.474;7.228;2024-01-25T06:47:21;13.60;;;3.53;;
50968;SDS011;36982;51.474;7.228;2024-01-25T06:49:47;17.33;;;3.27;;
50968;SDS011;36982;51.474;7.228;2024-01-25T06:52:16;17.47;;;3.50;;
50968;SDS011;36982;51.474;7.228;2024-01-25T06:54:42;19.27;;;4.70;;
50968;SDS011;36982;51.474;7.228;2024-01-25T06:57:08;15.87;;;3.13;;
50968;SDS011;36982;51.474;7.228;2024-01-25T06:59:33;24.03;;;4.40;;
50968;SDS011;36982;51.474;7.228;2024-01-25T07:01:59;16.87;;;4.20;;
50968;SDS011;36982;51.474;7.228;2024-01-25T07:04:25;21.27;;;4.23;;
50968;SDS011;36982;51.474;7.228;2024-01-25T07:09:19;26.20;;;4.00;;
50968;SDS011;36982;51.474;7.228;2024-01-25T07:11:45;15.77;;;3.57;;
50968;SDS011;36982;51.474;7.228;2024-01-25T07:14:11;20.63;;;4.73;;
50968;SDS011;36982;51.474;7.228;2024-01-25T07:16:36;21.97;;;4.07;;
50968;SDS011;36982;51.474;7.228;2024-01-25T07:19:02;18.43;;;4.20;;
50968;SDS011;36982;51.474;7.228;2024-01-25T07:21:28;19.17;;;4.23;;
50968;SDS011;36982;51.474;7.228;2024-01-25T07:23:57;17.83;;;5.00;;
50968;SDS011;36982;51.474;7.228;2024-01-25T07:26:29;16.90;;;4.47;;
50968;SDS011;36982;51.474;7.228;2024-01-25T07:28:55;23.43;;;4.20;;
50968;SDS011;36982;51.474;7.228;2024-01-25T07:31:26;20.37;;;4.23;;
50968;SDS011;36982;51.474;7.228;2024-01-25T07:33:52;19.50;;;4.00;;
50968;SDS011;36982;51.474;7.228;2024-01-25T07:36:19;20.83;;;4.90;;
50968;SDS011;36982;51.474;7.228;2024-01-25T07:38:45;17.17;;;3.83;;
50968;SDS011;36982;51.474;7.228;2024-01-25T07:41:12;20.87;;;4.70;;
50968;SDS011;36982;51.474;7.228;2024-01-25T07:43:38;19.37;;;3.97;;
50968;SDS011;36982;51.474;7.228;2024-01-25T07:46:03;16.27;;;4.10;;
50968;SDS011;36982;51.474;7.228;2024-01-25T07:48:29;18.33;;;4.57;;
50968;SDS011;36982;51.474;7.228;2024-01-25T07:50:56;20.20;;;4.47;;
50968;SDS011;36982;51.474;7.228;2024-01-25T07:53:22;18.50;;;4.67;;
50968;SDS011;36982;51.474;7.228;2024-01-25T07:55:48;15.57;;;5.03;;
50968;SDS011;36982;51.474;7.228;2024-01-25T07:58:16;20.37;;;5.27;;
50968;SDS011;36982;51.474;7.228;2024-01-25T08:00:42;25.03;;;5.47;;
50968;SDS011;36982;51.474;7.228;2024-01-25T08:03:08;15.50;;;4.70;;
50968;SDS011;36982;51.474;7.228;2024-01-25T08:05:33;19.40;;;4.70;;
50968;SDS011;36982;51.474;7.228;2024-01-25T08:07:59;22.90;;;5.27;;
50968;SDS011;36982;51.474;7.228;2024-01-25T08:12:54;22.43;;;4.53;;
50968;SDS011;36982;51.474;7.228;2024-01-25T08:15:20;19.70;;;5.57;;
50968;SDS011;36982;51.474;7.228;2024-01-25T08:17:45;24.20;;;5.47;;
50968;SDS011;36982;51.474;7.228;2024-01-25T08:20:11;25.43;;;5.77;;
50968;SDS011;36982;51.474;7.228;2024-01-25T08:22:38;23.37;;;5.33;;
50968;SDS011;36982;51.474;7.228;2024-01-25T08:25:05;15.33;;;4.73;;
50968;SDS011;36982;51.474;7.228;2024-01-25T08:27:39;21.80;;;5.27;;
50968;SDS011;36982;51.474;7.228;2024-01-25T08:30:05;26.90;;;5.77;;
50968;SDS011;36982;51.474;7.228;2024-01-25T08:32:32;17.57;;;5.57;;
50968;SDS011;36982;51.474;7.228;2024-01-25T08:34:57;20.63;;;5.67;;
50968;SDS011;36982;51.474;7.228;2024-01-25T08:37:23;23.17;;;5.80;;
50968;SDS011;36982;51.474;7.228;2024-01-25T08:39:48;27.43;;;6.03;;
50968;SDS011;36982;51.474;7.228;2024-01-25T08:42:16;21.70;;;6.20;;
50968;SDS011;36982;51.474;7.228;2024-01-25T08:44:42;30.50;;;6.53;;
50968;SDS011;36982;51.474;7.228;2024-01-25T08:47:14;24.00;;;6.40;;
50968;SDS011;36982;51.474;7.228;2024-01-25T08:49:42;22.90;;;5.90;;
50968;SDS011;36982;51.474;7.228;2024-01-25T08:52:08;28.33;;;5.43;;
50968;SDS011;36982;51.474;7.228;2024-01-25T08:54:34;22.97;;;7.60;;
50968;SDS011;36982;51.474;7.228;2024-01-25T08:57:02;32.63;;;7.07;;
50968;SDS011;36982;51.474;7.228;2024-01-25T08:59:28;28.23;;;7.10;;
50968;SDS011;36982;51.474;7.228;2024-01-25T09:02:04;22.20;;;6.20;;
50968;SDS011;36982;51.474;7.228;2024-01-25T09:04:31;29.40;;;7.73;;
50968;SDS011;36982;51.474;7.228;2024-01-25T09:06:57;21.10;;;6.43;;
50968;SDS011;36982;51.474;7.228;2024-01-25T09:09:34;32.53;;;8.33;;
50968;SDS011;36982;51.474;7.228;2024-01-25T09:12:00;23.60;;;7.40;;
50968;SDS011;36982;51.474;7.228;2024-01-25T09:14:25;23.93;;;7.73;;
50968;SDS011;36982;51.474;7.228;2024-01-25T09:16:51;34.93;;;8.00;;
50968;SDS011;36982;51.474;7.228;2024-01-25T09:19:21;28.93;;;7.87;;
50968;SDS011;36982;51.474;7.228;2024-01-25T09:21:46;25.27;;;9.00;;
50968;SDS011;36982;51.474;7.228;2024-01-25T09:24:12;29.77;;;8.93;;
50968;SDS011;36982;51.474;7.228;2024-01-25T09:26:37;27.30;;;8.77;;
50968;SDS011;36982;51.474;7.228;2024-01-25T09:29:03;29.47;;;9.77;;
50968;SDS011;36982;51.474;7.228;2024-01-25T09:31:29;34.63;;;10.40;;
50968;SDS011;36982;51.474;7.228;2024-01-25T09:33:55;34.23;;;10.07;;
50968;SDS011;36982;51.474;7.228;2024-01-25T09:36:20;28.70;;;10.53;;
50968;SDS011;36982;51.474;7.228;2024-01-25T09:38:46;28.70;;;11.20;;
50968;SDS011;36982;51.474;7.228;2024-01-25T09:41:11;33.20;;;11.47;;
50968;SDS011;36982;51.474;7.228;2024-01-25T09:43:37;33.43;;;10.77;;
50968;SDS011;36982;51.474;7.228;2024-01-25T09:46:03;32.23;;;11.47;;
50968;SDS011;36982;51.474;7.228;2024-01-25T09:48:35;28.57;;;11.27;;
50968;SDS011;36982;51.474;7.228;2024-01-25T09:51:00;31.23;;;13.20;;
50968;SDS011;36982;51.474;7.228;2024-01-25T09:53:27;38.53;;;12.57;;
50968;SDS011;36982;51.474;7.228;2024-01-25T09:58:36;35.53;;;11.00;;
50968;SDS011;36982;51.474;7.228;2024-01-25T10:01:05;39.07;;;12.50;;
50968;SDS011;36982;51.474;7.228;2024-01-25T10:03:36;38.17;;;12.43;;
50968;SDS011;36982;51.474;7.228;2024-01-25T10:06:02;33.77;;;12.17;;
50968;SDS011;36982;51.474;7.228;2024-01-25T10:08:28;27.73;;;10.53;;
50968;SDS011;36982;51.474;7.228;2024-01-25T10:10:55;28.23;;;11.60;;
50968;SDS011;36982;51.474;7.228;2024-01-25T10:13:20;36.37;;;12.80;;
50968;SDS011;36982;51.474;7.228;2024-01-25T10:15:46;35.33;;;12.03;;
50968;SDS011;36982;51.474;7.228;2024-01-25T10:18:13;36.03;;;12.33;;
50968;SDS011;36982;51.474;7.228;2024-01-25T10:20:39;28.73;;;10.57;;
50968;SDS011;36982;51.474;7.228;2024-01-25T10:23:07;28.33;;;11.20;;
50968;SDS011;36982;51.474;7.228;2024-01-25T10:25:36;26.93;;;10.77;;
50968;SDS011;36982;51.474;7.228;2024-01-25T10:28:05;29.27;;;9.93;;
50968;SDS011;36982;51.474;7.228;2024-01-25T10:30:32;28.73;;;10.73;;
50968;SDS011;36982;51.474;7.228;2024-01-25T10:32:58;27.33;;;10.40;;
50968;SDS011;36982;51.474;7.228;2024-01-25T10:38:20;29.93;;;10.77;;
50968;SDS011;36982;51.474;7.228;2024-01-25T10:40:46;28.33;;;9.27;;
50968;SDS011;36982;51.474;7.228;2024-01-25T10:43:16;29.13;;;9.47;;
50968;SDS011;36982;51.474;7.228;2024-01-25T10:45:42;25.30;;;10.03;;
50968;SDS011;36982;51.474;7.228;2024-01-25T10:48:07;29.97;;;9.17;;
50968;SDS011;36982;51.474;7.228;2024-01-25T10:50:33;30.87;;;9.77;;
50968;SDS011;36982;51.474;7.228;2024-01-25T10:52:59;23.53;;;9.67;;
50968;SDS011;36982;51.474;7.228;2024-01-25T10:55:27;36.63;;;11.33;;
50968;SDS011;36982;51.474;7.228;2024-01-25T10:57:53;37.70;;;10.83;;
50968;SDS011;36982;51.474;7.228;2024-01-25T11:00:18;33.60;;;10.73;;
50968;SDS011;36982;51.474;7.228;2024-01-25T11:02:46;30.23;;;11.03;;
50968;SDS011;36982;51.474;7.228;2024-01-25T11:05:12;23.83;;;9.60;;
50968;SDS011;36982;51.474;7.228;2024-01-25T11:07:49;32.83;;;10.10;;
50968;SDS011;36982;51.474;7.228;2024-01-25T11:12:56;22.10;;;8.87;;
50968;SDS011;36982;51.474;7.228;2024-01-25T11:15:31;27.10;;;9.17;;
50968;SDS011;36982;51.474;7.228;2024-01-25T11:17:58;18.13;;;8.33;;
50968;SDS011;36982;51.474;7.228;2024-01-25T11:20:25;25.87;;;8.17;;
50968;SDS011;36982;51.474;7.228;2024-01-25T11:25:26;23.77;;;7.40;;
50968;SDS011;36982;51.474;7.228;2024-01-25T11:27:55;12.63;;;6.90;;
50968;SDS011;36982;51.474;7.228;2024-01-25T11:30:21;29.13;;;7.70;;
50968;SDS011;36982;51.474;7.228;2024-01-25T11:32:47;27.80;;;8.63;;
50968;SDS011;36982;51.474;7.228;2024-01-25T11:35:13;23.73;;;6.93;;
50968;SDS011;36982;51.474;7.228;2024-01-25T11:37:48;29.23;;;7.43;;
50968;SDS011;36982;51.474;7.228;2024-01-25T11:40:15;25.77;;;6.07;;
50968;SDS011;36982;51.474;7.228;2024-01-25T11:42:42;23.30;;;6.27;;
50968;SDS011;36982;51.474;7.228;2024-01-25T11:45:10;22.13;;;6.37;;
50968;SDS011;36982;51.474;7.228;2024-01-25T11:47:36;23.97;;;6.37;;
50968;SDS011;36982;51.474;7.228;2024-01-25T11:50:03;27.73;;;6.57;;
50968;SDS011;36982;51.474;7.228;2024-01-25T11:52:34;22.00;;;6.03;;
50968;SDS011;36982;51.474;7.228;2024-01-25T11:55:04;17.90;;;5.37;;
50968;SDS011;36982;51.474;7.228;2024-01-25T11:57:32;19.73;;;5.20;;
50968;SDS011;36982;51.474;7.228;2024-01-25T12:00:02;18.80;;;5.43;;
50968;SDS011;36982;51.474;7.228;2024-01-25T12:02:29;19.97;;;5.63;;
50968;SDS011;36982;51.474;7.228;2024-01-25T12:04:56;18.70;;;4.53;;
50968;SDS011;36982;51.474;7.228;2024-01-25T12:07:22;21.57;;;4.80;;
50968;SDS011;36982;51.474;7.228;2024-01-25T12:10:07;15.57;;;4.53;;
50968;SDS011;36982;51.474;7.228;2024-01-25T12:12:36;14.63;;;3.77;;
50968;SDS011;36982;51.474;7.228;2024-01-25T12:15:04;17.73;;;4.53;;
50968;SDS011;36982;51.474;7.228;2024-01-25T12:20:23;19.23;;;4.87;;
50968;SDS011;36982;51.474;7.228;2024-01-25T12:22:49;16.53;;;4.83;;
50968;SDS011;36982;51.474;7.228;2024-01-25T12:25:15;18.43;;;4.90;;
50968;SDS011;36982;51.474;7.228;2024-01-25T12:27:40;18.60;;;4.77;;
50968;SDS011;36982;51.474;7.228;2024-01-25T12:30:06;19.47;;;4.47;;
50968;SDS011;36982;51.474;7.228;2024-01-25T12:32:34;15.00;;;3.97;;
50968;SDS011;36982;51.474;7.228;2024-01-25T12:35:00;16.17;;;4.67;;
50968;SDS011;36982;51.474;7.228;2024-01-25T12:37:26;21.33;;;5.07;;
50968;SDS011;36982;51.474;7.228;2024-01-25T12:39:53;16.53;;;4.30;;
50968;SDS011;36982;51.474;7.228;2024-01-25T12:42:19;23.73;;;4.63;;
50968;SDS011;36982;51.474;7.228;2024-01-25T12:44:51;25.63;;;5.17;;
50968;SDS011;36982;51.474;7.228;2024-01-25T12:47:19;18.63;;;5.33;;
50968;SDS011;36982;51.474;7.228;2024-01-25T12:49:45;18.27;;;5.17;;
50968;SDS011;36982;51.474;7.228;2024-01-25T12:52:14;18.93;;;5.03;;
50968;SDS011;36982;51.474;7.228;2024-01-25T12:54:40;16.93;;;5.03;;
50968;SDS011;36982;51.474;7.228;2024-01-25T12:57:06;17.27;;;5.53;;
50968;SDS011;36982;51.474;7.228;2024-01-25T12:59:32;18.30;;;4.67;;
50968;SDS011;36982;51.474;7.228;2024-01-25T13:02:02;17.80;;;5.63;;
50968;SDS011;36982;51.474;7.228;2024-01-25T13:04:28;24.77;;;5.53;;
50968;SDS011;36982;51.474;7.228;2024-01-25T13:06:54;21.20;;;5.60;;
50968;SDS011;36982;51.474;7.228;2024-01-25T13:09:23;20.50;;;5.57;;
50968;SDS011;36982;51.474;7.228;2024-01-25T13:11:49;20.73;;;5.83;;
50968;SDS011;36982;51.474;7.228;2024-01-25T13:14:17;22.63;;;6.37;;
50968;SDS011;36982;51.474;7.228;2024-01-25T13:16:42;21.43;;;6.07;;
50968;SDS011;36982;51.474;7.228;2024-01-25T13:19:08;25.67;;;5.93;;
50968;SDS011;36982;51.474;7.228;2024-01-25T13:21:34;21.00;;;5.90;;
50968;SDS011;36982;51.474;7.228;2024-01-25T13:24:00;19.93;;;5.73;;
50968;SDS011;36982;51.474;7.228;2024-01-25T13:26:30;16.83;;;5.20;;
50968;SDS011;36982;51.474;7.228;2024-01-25T13:28:55;20.83;;;6.00;;
50968;SDS011;36982;51.474;7.228;2024-01-25T13:31:21;24.03;;;6.50;;
50968;SDS011;36982;51.474;7.228;2024-01-25T13:33:46;24.00;;;6.90;;
50968;SDS011;36982;51.474;7.228;2024-01-25T13:36:14;19.70;;;5.43;;
50968;SDS011;36982;51.474;7.228;2024-01-25T13:38:40;24.70;;;6.40;;
50968;SDS011;36982;51.474;7.228;2024-01-25T13:41:05;17.97;;;5.50;;
50968;SDS011;36982;51.474;7.228;2024-01-25T13:43:31;15.97;;;5.73;;
50968;SDS011;36982;51.474;7.228;2024-01-25T13:45:57;23.73;;;5.90;;
50968;SDS011;36982;51.474;7.228;2024-01-25T13:48:22;18.23;;;5.17;;
50968;SDS011;36982;51.474;7.228;2024-01-25T13:50:48;16.43;;;5.03;;
50968;SDS011;36982;51.474;7.228;2024-01-25T13:53:14;18.97;;;5.33;;
50968;SDS011;36982;51.474;7.228;2024-01-25T13:55:39;27.60;;;6.17;;
50968;SDS011;36982;51.474;7.228;2024-01-25T13:58:05;16.27;;;5.37;;
50968;SDS011;36982;51.474;7.228;2024-01-25T14:00:31;19.43;;;6.20;;
50968;SDS011;36982;51.474;7.228;2024-01-25T14:02:56;24.30;;;6.93;;
50968;SDS011;36982;51.474;7.228;2024-01-25T14:05:22;20.50;;;5.77;;
50968;SDS011;36982;51.474;7.228;2024-01-25T14:07:47;15.53;;;5.87;;
50968;SDS011;36982;51.474;7.228;2024-01-25T14:10:13;24.67;;;6.00;;
50968;SDS011;36982;51.474;7.228;2024-01-25T14:12:39;22.77;;;6.93;;
50968;SDS011;36982;51.474;7.228;2024-01-25T14:15:04;23.63;;;6.40;;
50968;SDS011;36982;51.474;7.228;2024-01-25T14:17:30;21.63;;;6.30;;
50968;SDS011;36982;51.474;7.228;2024-01-25T14:19:56;21.17;;;5.80;;
50968;SDS011;36982;51.474;7.228;2024-01-25T14:22:21;24.93;;;6.60;;
50968;SDS011;36982;51.474;7.228;2024-01-25T14:24:47;25.33;;;6.30;;
50968;SDS011;36982;51.474;7.228;2024-01-25T14:27:14;22.93;;;5.77;;
50968;SDS011;36982;51.474;7.228;2024-01-25T14:29:39;23.27;;;6.77;;
50968;SDS011;36982;51.474;7.228;2024-01-25T14:32:05;22.77;;;5.97;;
50968;SDS011;36982;51.474;7.228;2024-01-25T14:34:31;21.90;;;6.30;;
50968;SDS011;36982;51.474;7.228;2024-01-25T14:37:02;23.87;;;6.83;;
50968;SDS011;36982;51.474;7.228;2024-01-25T14:39:27;23.43;;;6.73;;
50968;SDS011;36982;51.474;7.228;2024-01-25T14:41:53;23.40;;;5.90;;
50968;SDS011;36982;51.474;7.228;2024-01-25T14:44:19;24.23;;;6.27;;
50968;SDS011;36982;51.474;7.228;2024-01-25T14:46:45;18.10;;;5.97;;
50968;SDS011;36982;51.474;7.228;2024-01-25T14:49:11;22.90;;;6.30;;
50968;SDS011;36982;51.474;7.228;2024-01-25T14:51:36;21.13;;;6.60;;
50968;SDS011;36982;51.474;7.228;2024-01-25T14:54:02;23.83;;;6.47;;